Time;durP1;ratioP1;P1;durP2;ratioP2;P2;SDS_P1;SDS_P2;PMS_P1;PMS_P2;Temp;Humidity;BMP_temperature;BMP_pressure;BME280_temperature;BME280_humidity;BME280_pressure;Samples;Min_cycle;Max_cycle;Signal;HPM_P1;HPM_P2
2021/06/09 00:00:28;;;;;;;3.88;2.83;;;;;;;20.81;45.32;102182.13;6091204;28;20511;-51
2021/06/09 00:03:49;;;;;;;4.68;3.67;;;;;;;20.81;45.23;102181.28;6089257;28;20264;-51
2021/06/09 00:07:09;;;;;;;3.50;3.00;;;;;;;20.65;45.53;102181.72;6090691;28;20327;-54
2021/06/09 00:10:30;;;;;;;3.22;2.97;;;;;;;20.38;46.18;102174.56;6088426;28;20232;-51
2021/06/09 00:13:50;;;;;;;2.90;2.70;;;;;;;20.36;46.61;102174.63;6092563;28;20244;-50
2021/06/09 00:17:12;;;;;;;4.68;3.03;;;;;;;20.55;45.79;102174.06;6092030;28;20652;-53
2021/06/09 00:20:33;;;;;;;5.13;3.10;;;;;;;20.40;46.24;102170.09;6088214;28;20570;-54
2021/06/09 00:23:53;;;;;;;3.45;3.17;;;;;;;20.42;46.13;102166.50;6093310;28;20391;-52
2021/06/09 00:27:14;;;;;;;3.72;3.00;;;;;;;20.51;45.82;102167.13;6088250;28;20248;-51
2021/06/09 00:30:35;;;;;;;2.88;2.67;;;;;;;20.41;46.03;102174.47;6069479;28;20244;-52
2021/06/09 00:33:57;;;;;;;4.88;4.07;;;;;;;20.43;46.15;102170.00;6091519;28;20260;-53
2021/06/09 00:37:17;;;;;;;2.60;2.40;;;;;;;20.37;46.05;102171.03;6089397;28;20240;-53
2021/06/09 00:40:39;;;;;;;2.67;2.47;;;;;;;20.41;46.10;102167.41;6089354;28;20264;-53
2021/06/09 00:44:02;;;;;;;2.75;2.50;;;;;;;20.38;46.06;102167.50;6092548;28;20335;-54
2021/06/09 00:47:24;;;;;;;3.42;3.13;;;;;;;20.31;46.21;102160.63;6089108;28;20592;-53
2021/06/09 00:50:47;;;;;;;3.42;3.17;;;;;;;20.28;46.49;102160.75;6095596;28;20236;-56
2021/06/09 00:54:08;;;;;;;2.60;2.40;;;;;;;20.33;46.09;102155.31;6096250;28;20236;-52
2021/06/09 00:57:29;;;;;;;4.18;3.08;;;;;;;20.04;46.95;102154.34;6099662;28;20252;-51
2021/06/09 01:00:50;;;;;;;5.00;3.50;;;;;;;19.95;46.89;102149.31;6084705;28;20240;-56
2021/06/09 01:04:10;;;;;;;3.80;2.80;;;;;;;19.88;47.41;102150.41;6084686;28;20633;-54
2021/06/09 01:07:37;;;;;;;2.85;2.65;;;;;;;19.75;47.83;102152.50;6095772;28;20228;-52
2021/06/09 01:10:57;;;;;;;5.15;2.83;;;;;;;19.89;47.65;102155.66;6090792;28;20240;-54
2021/06/09 01:14:18;;;;;;;3.63;2.45;;;;;;;19.92;47.66;102152.03;6092703;28;20228;-51
2021/06/09 01:17:39;;;;;;;2.95;2.75;;;;;;;19.52;48.21;102147.75;6097483;28;20236;-53
2021/06/09 01:21:00;;;;;;;3.15;2.85;;;;;;;19.34;48.61;102151.75;6090822;28;20619;-50
2021/06/09 01:24:21;;;;;;;3.40;2.85;;;;;;;19.56;48.44;102152.06;6096494;28;20228;-55
2021/06/09 01:27:42;;;;;;;2.90;2.67;;;;;;;19.72;48.03;102156.09;6091976;28;20232;-54
2021/06/09 01:31:03;;;;;;;2.85;2.65;;;;;;;19.44;48.42;102153.25;6098104;28;20228;-50
2021/06/09 01:34:23;;;;;;;4.15;2.70;;;;;;;19.44;48.39;102155.88;6085167;28;20269;-54
2021/06/09 01:37:44;;;;;;;3.45;3.15;;;;;;;19.61;48.09;102155.47;6095201;28;20620;-54
2021/06/09 01:41:05;;;;;;;3.25;2.95;;;;;;;19.14;49.46;102168.06;6095337;28;20346;-54
2021/06/09 01:44:26;;;;;;;2.70;2.50;;;;;;;18.98;49.95;102155.22;6094596;28;20232;-54
2021/06/09 01:47:47;;;;;;;3.08;2.88;;;;;;;19.29;49.37;102157.16;6096936;28;20228;-56
2021/06/09 01:51:07;;;;;;;3.53;2.83;;;;;;;19.37;49.00;102162.25;6097948;28;20241;-56
2021/06/09 01:54:28;;;;;;;3.60;2.78;;;;;;;19.46;48.86;102165.53;6089187;28;20236;-51
2021/06/09 01:57:51;;;;;;;3.13;2.85;;;;;;;19.61;48.63;102158.97;6096043;28;20248;-55
2021/06/09 02:01:12;;;;;;;4.07;3.20;;;;;;;19.27;49.17;102154.53;6091544;28;20711;-55
2021/06/09 02:04:33;;;;;;;3.00;2.80;;;;;;;18.83;50.58;102158.22;6097096;28;20766;-51
2021/06/09 02:07:55;;;;;;;2.67;2.47;;;;;;;18.77;50.47;102153.03;6092464;28;20236;-53
2021/06/09 02:11:16;;;;;;;3.30;3.00;;;;;;;18.78;50.65;102154.75;6093048;28;20237;-51
2021/06/09 02:14:38;;;;;;;3.35;2.25;;;;;;;18.87;50.23;102147.53;6087562;28;20496;-53
2021/06/09 02:18:08;;;;;;;3.40;2.88;;;;;;;19.17;49.57;102142.44;6097640;28;20229;-53
2021/06/09 02:21:29;;;;;;;2.40;2.20;;;;;;;18.81;50.69;102149.47;6094445;28;20239;-54
2021/06/09 02:24:49;;;;;;;2.78;2.58;;;;;;;18.76;50.92;102144.22;6097778;28;20236;-52
2021/06/09 02:28:10;;;;;;;3.50;3.17;;;;;;;18.98;50.34;102142.03;6096975;28;20232;-54
2021/06/09 02:31:32;;;;;;;2.63;2.42;;;;;;;18.97;50.16;102144.69;6092052;28;20240;-55
2021/06/09 02:34:53;;;;;;;4.47;3.08;;;;;;;18.82;50.49;102151.19;6099210;28;20499;-53
2021/06/09 02:38:15;;;;;;;2.58;2.38;;;;;;;18.86;50.25;102147.56;6097147;28;20232;-55
2021/06/09 02:41:35;;;;;;;2.83;2.13;;;;;;;18.83;50.74;102143.25;6102183;28;20256;-53
2021/06/09 02:44:56;;;;;;;2.75;2.40;;;;;;;18.86;50.75;102144.94;6089892;28;20221;-50
2021/06/09 02:48:22;;;;;;;3.42;3.13;;;;;;;18.76;50.26;102151.28;6095052;28;20328;-55
2021/06/09 02:51:46;;;;;;;2.92;2.63;;;;;;;18.54;51.00;102151.75;6094211;28;20232;-52
2021/06/09 02:55:16;;;;;;;3.92;3.03;;;;;;;18.35;51.39;102153.03;6097054;28;20260;-52
2021/06/09 02:58:48;;;;;;;3.13;2.60;;;;;;;18.59;51.15;102149.91;6088243;28;20244;-52
2021/06/09 03:02:14;;;;;;;7.68;6.88;;;;;;;18.68;51.47;102146.19;6097535;28;20243;-53
2021/06/09 03:05:41;;;;;;;7.72;6.20;;;;;;;18.68;51.15;102143.53;6092522;28;20224;-52
2021/06/09 03:09:06;;;;;;;7.25;6.13;;;;;;;18.85;50.66;102141.44;6088945;28;20229;-54
2021/06/09 03:12:41;;;;;;;6.75;6.05;;;;;;;18.93;50.20;102138.63;6097759;28;20511;-55
2021/06/09 03:16:05;;;;;;;5.50;5.00;;;;;;;18.87;50.84;102138.75;6086957;28;20312;-53
2021/06/09 03:19:40;;;;;;;5.50;5.00;;;;;;;18.86;50.32;102137.91;6085919;28;20236;-54
2021/06/09 03:23:06;;;;;;;6.78;4.97;;;;;;;18.78;50.71;102139.78;6098428;28;20235;-51
2021/06/09 03:26:36;;;;;;;7.32;5.88;;;;;;;18.66;51.11;102145.34;6093323;28;20224;-50
2021/06/09 03:30:01;;;;;;;7.90;6.32;;;;;;;18.33;52.15;102144.31;6092291;28;20861;-54
2021/06/09 03:33:24;;;;;;;5.97;5.45;;;;;;;18.33;52.13;102149.56;6097872;28;20630;-51
2021/06/09 03:36:46;;;;;;;5.65;5.07;;;;;;;18.33;52.12;102141.66;6089867;28;21358;-54
2021/06/09 03:40:14;;;;;;;4.85;3.80;;;;;;;18.40;52.10;102145.91;6096708;28;20555;-53
2021/06/09 03:43:38;;;;;;;6.13;3.70;;;;;;;18.71;51.32;102140.84;6082034;28;20239;-54
2021/06/09 03:47:01;;;;;;;3.08;2.88;;;;;;;18.70;51.10;102131.19;6089180;28;20239;-54
2021/06/09 03:50:25;;;;;;;5.05;3.00;;;;;;;18.70;51.26;102132.03;6092895;28;20236;-49
2021/06/09 03:53:47;;;;;;;5.82;3.42;;;;;;;18.74;51.17;102132.00;6097739;28;20232;-54
2021/06/09 03:57:09;;;;;;;5.25;4.53;;;;;;;18.83;51.36;102139.75;6089646;28;20282;-53
2021/06/09 04:00:30;;;;;;;6.13;4.95;;;;;;;18.95;50.72;102142.09;6092803;28;20237;-51
2021/06/09 04:03:52;;;;;;;6.15;4.85;;;;;;;18.84;51.06;102138.81;6091298;28;20220;-56
2021/06/09 04:07:14;;;;;;;7.13;5.88;;;;;;;18.57;51.79;102130.59;6087268;28;20235;-53
2021/06/09 04:10:36;;;;;;;9.68;4.90;;;;;;;18.67;51.25;102132.13;6090845;28;20229;-56
2021/06/09 04:13:59;;;;;;;9.80;7.47;;;;;;;18.59;51.57;102134.06;6093061;28;20227;-49
2021/06/09 04:17:23;;;;;;;11.32;10.20;;;;;;;18.60;51.85;102127.88;6100528;28;20331;-54
2021/06/09 04:20:47;;;;;;;8.55;7.18;;;;;;;18.79;51.41;102135.41;6083107;28;20639;-52
2021/06/09 04:24:08;;;;;;;5.50;3.30;;;;;;;19.15;50.04;102127.56;6093169;28;20240;-52
2021/06/09 04:27:32;;;;;;;4.85;4.18;;;;;;;18.98;50.98;102133.22;6098372;28;20277;-52
2021/06/09 04:30:54;;;;;;;6.95;4.28;;;;;;;19.13;50.59;102129.34;6102836;28;20306;-54
2021/06/09 04:34:15;;;;;;;4.13;3.53;;;;;;;19.21;50.15;102125.66;6106657;28;20543;-54
2021/06/09 04:37:37;;;;;;;5.95;3.33;;;;;;;19.26;50.00;102125.53;6098803;28;20236;-52
2021/06/09 04:40:58;;;;;;;6.15;4.28;;;;;;;19.28;50.05;102129.00;6093507;28;20223;-55
2021/06/09 04:44:18;;;;;;;7.20;3.20;;;;;;;19.41;49.79;102133.06;6108687;28;20232;-53
2021/06/09 04:47:40;;;;;;;5.63;2.80;;;;;;;19.48;49.52;102131.13;6104634;28;20232;-56
2021/06/09 04:51:02;;;;;;;5.43;3.58;;;;;;;19.65;49.31;102128.91;6103699;28;20593;-55
2021/06/09 04:54:22;;;;;;;5.60;3.47;;;;;;;19.90;48.82;102128.28;6102045;28;20232;-56
2021/06/09 04:57:42;;;;;;;4.07;3.60;;;;;;;19.78;49.55;102126.84;6101774;28;20252;-55
2021/06/09 05:01:03;;;;;;;4.53;3.72;;;;;;;19.88;49.09;102129.25;6098804;28;20236;-56
2021/06/09 05:04:24;;;;;;;7.95;3.35;;;;;;;20.00;48.53;102128.91;6095077;28;20236;-56
2021/06/09 05:07:45;;;;;;;6.35;4.18;;;;;;;20.00;48.29;102121.84;6098793;28;20232;-56
2021/06/09 05:11:11;;;;;;;5.35;3.45;;;;;;;20.04;48.51;102125.25;6091379;28;20244;-56
2021/06/09 05:14:36;;;;;;;4.57;3.25;;;;;;;19.61;48.65;102126.41;6094416;28;20235;-53
2021/06/09 05:17:57;;;;;;;6.68;3.80;;;;;;;19.78;48.99;102133.91;6094646;28;20232;-52
2021/06/09 05:21:22;;;;;;;4.22;3.25;;;;;;;20.03;47.50;102128.84;6099544;28;20240;-56
2021/06/09 05:24:44;;;;;;;3.78;2.88;;;;;;;19.36;47.49;102128.78;6095900;28;20268;-55
2021/06/09 05:28:07;;;;;;;3.90;2.80;;;;;;;19.25;47.72;102129.03;6099772;28;20255;-55
2021/06/09 05:31:28;;;;;;;3.38;3.08;;;;;;;19.93;46.37;102127.34;6093749;28;20892;-56
2021/06/09 05:34:51;;;;;;;5.50;3.25;;;;;;;20.28;44.57;102134.28;6099295;28;21006;-62
2021/06/09 05:38:14;;;;;;;2.97;2.60;;;;;;;20.39;43.66;102126.88;6085785;28;20240;-62
2021/06/09 05:41:34;;;;;;;4.10;3.42;;;;;;;20.43;43.17;102123.25;6085234;28;20987;-63
2021/06/09 05:44:55;;;;;;;3.17;2.50;;;;;;;20.60;43.27;102127.19;6088809;28;20599;-61
2021/06/09 05:48:16;;;;;;;3.95;3.63;;;;;;;20.75;42.85;102124.09;6088725;28;20236;-62
2021/06/09 05:51:37;;;;;;;5.40;3.00;;;;;;;20.87;43.97;102122.84;6088190;28;20244;-63
2021/06/09 05:54:59;;;;;;;4.53;3.10;;;;;;;20.91;43.07;102129.75;6090920;28;20237;-61
2021/06/09 05:58:21;;;;;;;5.70;3.75;;;;;;;21.14;41.99;102121.06;6089699;28;20232;-61
2021/06/09 06:01:43;;;;;;;6.35;3.92;;;;;;;21.00;43.19;102124.19;6089210;28;20825;-63
2021/06/09 06:05:04;;;;;;;4.53;2.90;;;;;;;20.99;43.67;102121.56;6083902;28;20229;-63
2021/06/09 06:08:25;;;;;;;4.15;2.70;;;;;;;20.84;43.32;102123.81;6084151;28;20623;-62
2021/06/09 06:11:48;;;;;;;3.22;2.72;;;;;;;21.50;42.07;102122.56;6084207;28;20236;-63
2021/06/09 06:15:11;;;;;;;3.63;2.90;;;;;;;20.86;40.95;102123.75;6083421;28;20416;-63
2021/06/09 06:18:33;;;;;;;3.65;2.30;;;;;;;21.03;40.77;102112.59;6087032;28;20603;-62
2021/06/09 06:21:53;;;;;;;5.18;2.25;;;;;;;20.95;39.93;102115.50;6094104;28;20236;-62
2021/06/09 06:25:16;;;;;;;2.97;2.03;;;;;;;21.52;39.72;102110.13;6094911;28;21430;-63
2021/06/09 06:28:39;;;;;;;3.47;1.88;;;;;;;21.39;40.07;102121.13;6102686;28;20382;-61
2021/06/09 06:32:00;;;;;;;3.53;1.60;;;;;;;21.49;39.36;102120.84;6102657;28;20235;-60
2021/06/09 06:35:23;;;;;;;2.55;1.95;;;;;;;21.40;40.75;102117.56;6108042;28;20247;-61
2021/06/09 06:38:45;;;;;;;2.50;2.30;;;;;;;21.82;38.44;102124.97;6103617;28;20267;-64
2021/06/09 06:42:07;;;;;;;4.20;2.28;;;;;;;21.17;39.23;102121.00;6089612;28;20240;-65
2021/06/09 06:45:29;;;;;;;1.65;1.40;;;;;;;20.88;39.33;102121.03;6103040;28;20236;-63
2021/06/09 06:48:53;;;;;;;3.80;1.92;;;;;;;21.62;38.33;102112.41;6108065;28;20500;-63
2021/06/09 06:52:13;;;;;;;7.47;1.90;;;;;;;22.12;36.95;102115.94;6099409;28;20618;-61
2021/06/09 06:55:35;;;;;;;2.40;1.85;;;;;;;22.47;36.90;102119.97;6104311;28;20231;-62
2021/06/09 06:58:55;;;;;;;3.63;1.90;;;;;;;22.57;37.60;102121.34;6101189;28;20826;-61
2021/06/09 07:02:18;;;;;;;1.60;1.50;;;;;;;22.50;37.71;102122.50;6100209;28;20267;-62
2021/06/09 07:05:40;;;;;;;2.65;2.25;;;;;;;21.75;39.31;102117.28;6106497;28;20292;-62
2021/06/09 07:09:01;;;;;;;3.10;1.80;;;;;;;21.62;40.00;102116.88;6104275;28;20232;-61
2021/06/09 07:12:22;;;;;;;9.65;2.95;;;;;;;22.13;39.03;102117.69;6102523;28;20236;-62
2021/06/09 07:15:43;;;;;;;4.25;1.90;;;;;;;22.22;39.77;102117.34;6099237;28;20236;-62
2021/06/09 07:19:07;;;;;;;3.15;1.83;;;;;;;22.44;38.84;102116.56;6105256;28;20618;-64
2021/06/09 07:22:27;;;;;;;4.35;1.92;;;;;;;22.83;38.93;102114.13;6106744;28;20259;-65
2021/06/09 07:25:49;;;;;;;1.95;1.55;;;;;;;22.96;37.66;102115.38;6106253;28;20228;-63
2021/06/09 07:29:11;;;;;;;4.43;1.90;;;;;;;22.43;38.74;102113.06;6098787;28;20228;-63
2021/06/09 07:32:35;;;;;;;4.43;1.65;;;;;;;22.48;39.05;102110.22;6097582;28;20338;-63
2021/06/09 07:36:02;;;;;;;2.35;1.60;;;;;;;23.00;37.59;102098.38;6102592;28;20235;-62
2021/06/09 07:39:30;;;;;;;6.80;2.35;;;;;;;23.32;37.28;102105.97;6110359;28;20274;-63
2021/06/09 07:42:54;;;;;;;2.78;1.25;;;;;;;22.94;36.89;102119.88;6105159;28;20542;-62
2021/06/09 07:46:19;;;;;;;1.67;1.50;;;;;;;23.27;37.09;102110.63;6100451;28;20539;-60
2021/06/09 07:49:45;;;;;;;1.88;1.63;;;;;;;22.45;37.82;102119.19;6101359;28;20637;-61
2021/06/09 07:53:10;;;;;;;2.13;1.20;;;;;;;23.32;36.53;102108.63;6102518;28;20244;-62
2021/06/09 07:56:34;;;;;;;2.50;2.20;;;;;;;23.74;35.42;102103.22;6095751;28;20878;-61
2021/06/09 07:59:56;;;;;;;1.50;1.40;;;;;;;23.43;35.64;102108.16;6096151;28;20247;-62
2021/06/09 08:03:16;;;;;;;1.33;1.23;;;;;;;23.30;36.47;102102.50;6099655;28;20638;-62
2021/06/09 08:06:37;;;;;;;1.92;1.40;;;;;;;23.70;36.48;102109.63;6102856;28;20227;-61
2021/06/09 08:10:00;;;;;;;1.73;1.63;;;;;;;23.80;36.28;102093.31;6098432;28;20228;-64
2021/06/09 08:13:21;;;;;;;2.00;1.70;;;;;;;23.65;36.72;102105.44;6098926;28;20641;-64
2021/06/09 08:16:41;;;;;;;2.88;1.48;;;;;;;24.09;35.92;102098.16;6105437;28;20524;-62
2021/06/09 08:20:04;;;;;;;2.88;1.38;;;;;;;23.60;36.41;102089.69;6102940;28;20959;-63
2021/06/09 08:23:24;;;;;;;1.45;1.35;;;;;;;24.26;36.19;102089.41;6105630;28;20294;-63
2021/06/09 08:26:46;;;;;;;3.33;1.60;;;;;;;24.24;35.25;102090.41;6102973;28;20257;-63
2021/06/09 08:30:08;;;;;;;1.80;1.70;;;;;;;24.58;35.94;102092.34;6098110;28;20255;-62
2021/06/09 08:33:28;;;;;;;1.50;1.40;;;;;;;23.98;35.78;102093.34;6095701;28;20240;-63
2021/06/09 08:36:51;;;;;;;5.82;1.95;;;;;;;23.93;36.54;102103.31;6103117;28;20236;-61
2021/06/09 08:40:12;;;;;;;2.45;1.40;;;;;;;24.05;37.06;102101.91;6102057;28;20247;-62
2021/06/09 08:43:35;;;;;;;3.20;2.47;;;;;;;24.51;35.62;102106.94;6096788;28;20911;-62
2021/06/09 08:46:58;;;;;;;1.80;1.70;;;;;;;25.50;33.64;102102.94;6094178;28;20263;-59
2021/06/09 08:50:20;;;;;;;4.60;1.65;;;;;;;25.70;34.37;102092.06;6104044;28;20972;-62
2021/06/09 08:53:43;;;;;;;2.55;2.00;;;;;;;24.25;35.47;102097.44;6100696;28;20305;-62
2021/06/09 08:57:04;;;;;;;2.17;1.90;;;;;;;24.46;35.49;102095.59;6100190;28;21307;-62
2021/06/09 09:00:26;;;;;;;1.40;1.30;;;;;;;25.53;33.81;102100.09;6091921;28;20235;-63
2021/06/09 09:03:48;;;;;;;3.05;2.28;;;;;;;24.24;35.19;102106.38;6097938;28;20263;-63
2021/06/09 09:07:10;;;;;;;1.77;1.67;;;;;;;26.17;33.32;102100.31;6105805;28;20236;-62
2021/06/09 09:10:31;;;;;;;1.90;1.42;;;;;;;27.11;33.05;102095.91;6101128;28;20627;-61
2021/06/09 09:13:51;;;;;;;3.50;1.77;;;;;;;25.57;32.50;102095.47;6101733;28;20282;-62
2021/06/09 09:17:13;;;;;;;2.65;2.00;;;;;;;25.36;33.43;102098.31;6106601;28;20243;-62
2021/06/09 09:20:35;;;;;;;1.20;1.08;;;;;;;27.29;31.81;102097.50;6105843;28;20248;-62
2021/06/09 09:23:56;;;;;;;1.73;1.63;;;;;;;25.32;32.79;102097.63;6121629;28;20242;-61
2021/06/09 09:27:27;;;;;;;6.18;2.22;;;;;;;24.71;34.15;102106.81;6101762;28;20244;-62
2021/06/09 09:30:47;;;;;;;3.58;1.60;;;;;;;25.85;32.85;102097.56;6100526;28;20236;-62
2021/06/09 09:34:34;;;;;;;2.40;1.50;;;;;;;25.86;32.70;102096.59;6103198;28;20228;-61
2021/06/09 09:38:30;;;;;;;2.42;1.95;;;;;;;25.64;32.06;102105.75;6092991;28;20236;-62
2021/06/09 09:41:50;;;;;;;3.58;2.45;;;;;;;26.39;31.96;102100.88;6055868;29;20334;-62
2021/06/09 09:45:17;;;;;;;3.53;1.88;;;;;;;26.78;30.99;102094.25;6108236;28;20231;-63
2021/06/09 09:48:40;;;;;;;5.07;1.83;;;;;;;26.44;31.25;102090.75;6101431;28;20259;-62
2021/06/09 09:52:02;;;;;;;4.57;3.08;;;;;;;27.00;30.71;102085.81;6109713;28;20509;-64
2021/06/09 09:55:23;;;;;;;5.03;1.73;;;;;;;26.00;31.38;102107.44;6106771;28;20515;-62
2021/06/09 09:58:52;;;;;;;2.72;1.85;;;;;;;27.91;30.29;102093.78;6106187;28;20528;-61
2021/06/09 10:02:16;;;;;;;2.97;2.22;;;;;;;27.64;29.44;102090.97;6110578;28;20231;-61
2021/06/09 10:05:36;;;;;;;3.45;1.67;;;;;;;26.53;31.58;102097.41;6114720;28;20646;-62
2021/06/09 10:09:06;;;;;;;3.72;1.65;;;;;;;27.26;30.18;102091.50;6110487;28;20259;-61
2021/06/09 10:12:27;;;;;;;4.43;2.13;;;;;;;28.06;30.17;102090.16;6127668;28;20544;-60
2021/06/09 10:15:48;;;;;;;4.32;2.25;;;;;;;28.54;29.36;102086.25;6107999;28;20610;-62
2021/06/09 10:19:10;;;;;;;5.25;3.10;;;;;;;27.23;31.20;102094.31;6105088;28;20240;-61
2021/06/09 10:22:34;;;;;;;3.40;3.10;;;;;;;26.95;32.16;102092.38;6098643;28;20248;-62
2021/06/09 10:26:05;;;;;;;4.47;3.50;;;;;;;27.63;30.94;102082.09;6104544;28;20236;-61
2021/06/09 10:29:29;;;;;;;4.28;3.17;;;;;;;27.77;31.29;102083.06;6098578;28;20319;-60
2021/06/09 10:32:50;;;;;;;4.03;2.90;;;;;;;27.78;31.29;102076.75;6098065;28;20558;-62
2021/06/09 10:36:11;;;;;;;6.22;5.40;;;;;;;26.09;33.22;102077.59;6095744;28;20243;-62
2021/06/09 10:39:35;;;;;;;4.22;3.83;;;;;;;27.07;31.92;102073.81;6100543;28;20235;-60
2021/06/09 10:42:59;;;;;;;2.65;2.45;;;;;;;28.16;30.76;102070.84;6102288;28;20235;-63
2021/06/09 10:46:24;;;;;;;3.17;2.88;;;;;;;28.41;30.82;102065.59;6103606;28;20239;-62
2021/06/09 10:49:44;;;;;;;3.40;3.00;;;;;;;27.10;31.07;102067.44;6099918;28;20358;-62
2021/06/09 10:53:06;;;;;;;3.08;2.75;;;;;;;26.51;31.39;102070.78;6109756;28;20236;-62
2021/06/09 10:56:28;;;;;;;2.45;2.25;;;;;;;26.69;31.59;102058.22;6098611;28;20232;-62
2021/06/09 10:59:49;;;;;;;4.72;2.90;;;;;;;27.53;30.69;102054.19;6099802;28;20227;-63
2021/06/09 11:03:10;;;;;;;3.03;2.83;;;;;;;25.88;32.48;102062.69;6110817;28;20239;-62
2021/06/09 11:06:38;;;;;;;3.60;3.33;;;;;;;26.22;31.45;102061.75;6124965;28;20235;-62
2021/06/09 11:10:00;;;;;;;2.90;2.70;;;;;;;26.71;31.11;102053.66;6109372;28;20255;-62
2021/06/09 11:13:31;;;;;;;6.95;2.58;;;;;;;28.01;30.25;102052.09;6097646;28;20334;-55
2021/06/09 11:16:54;;;;;;;6.20;3.47;;;;;;;28.78;28.50;102036.41;6102250;28;20244;-52
2021/06/09 11:20:18;;;;;;;5.20;3.33;;;;;;;29.05;28.75;102046.22;6112940;28;20237;-55
2021/06/09 11:23:40;;;;;;;2.90;2.70;;;;;;;26.92;30.71;102046.19;6106810;28;20243;-51
2021/06/09 11:27:27;;;;;;;3.45;2.65;;;;;;;27.74;30.47;102035.06;6101585;28;20271;-50
2021/06/09 11:30:52;;;;;;;3.20;2.85;;;;;;;27.33;30.29;102033.16;6098054;28;20315;-51
2021/06/09 11:34:14;;;;;;;2.95;2.75;;;;;;;27.45;30.23;102037.72;6087434;28;20362;-50
2021/06/09 11:37:34;;;;;;;3.40;3.10;;;;;;;27.70;30.27;102037.06;6097058;28;20243;-52
2021/06/09 11:40:59;;;;;;;4.07;3.78;;;;;;;28.63;28.23;102026.72;6103259;28;20239;-53
2021/06/09 11:44:28;;;;;;;2.92;2.53;;;;;;;30.28;26.42;102034.91;6103080;28;20239;-48
2021/06/09 11:47:48;;;;;;;3.22;2.92;;;;;;;29.80;27.06;102032.16;6107839;28;20609;-54
2021/06/09 11:51:28;;;;;;;4.03;3.35;;;;;;;28.00;29.12;102028.97;6100450;28;20319;-54
2021/06/09 11:55:08;;;;;;;4.00;3.58;;;;;;;27.25;30.28;102029.13;6104560;28;20886;-52
2021/06/09 11:58:37;;;;;;;3.85;3.47;;;;;;;27.52;29.90;102023.03;6103407;28;20231;-53
2021/06/09 12:01:59;;;;;;;4.00;3.60;;;;;;;26.90;30.54;102026.72;6107326;28;20223;-50
2021/06/09 12:05:20;;;;;;;3.80;3.50;;;;;;;28.15;28.71;102018.22;6102193;28;20350;-52
2021/06/09 12:08:42;;;;;;;3.08;2.88;;;;;;;29.23;27.80;102020.00;6100105;28;20318;-56
2021/06/09 12:12:09;;;;;;;4.45;3.22;;;;;;;28.29;28.70;102023.56;6101347;28;20700;-52
2021/06/09 12:15:30;;;;;;;3.15;2.95;;;;;;;28.79;28.31;102011.34;6101054;28;20551;-55
2021/06/09 12:18:52;;;;;;;3.10;2.90;;;;;;;29.95;27.12;102017.63;6105580;28;20251;-55
2021/06/09 12:22:15;;;;;;;3.33;3.13;;;;;;;29.33;27.38;102009.47;6115580;28;20311;-52
2021/06/09 12:25:39;;;;;;;7.30;3.53;;;;;;;29.54;27.34;102009.81;6099240;28;21204;-54
2021/06/09 12:29:00;;;;;;;4.85;3.72;;;;;;;28.56;28.43;102004.00;6095073;28;20594;-54
2021/06/09 12:32:25;;;;;;;3.38;3.17;;;;;;;29.79;27.47;102004.41;6090896;28;20235;-52
2021/06/09 12:35:45;;;;;;;3.58;3.38;;;;;;;30.10;27.38;102001.34;6093543;28;20542;-52
2021/06/09 12:39:13;;;;;;;3.97;3.28;;;;;;;30.58;26.77;101996.00;6100972;28;20236;-54
2021/06/09 12:42:36;;;;;;;5.50;3.97;;;;;;;30.43;26.38;101988.09;6105921;28;20338;-56
2021/06/09 12:45:57;;;;;;;4.75;3.72;;;;;;;30.35;26.97;101990.53;6105748;28;20239;-54
2021/06/09 12:49:23;;;;;;;4.63;4.28;;;;;;;30.34;26.52;101980.75;6099651;28;20585;-55
2021/06/09 12:52:45;;;;;;;3.85;3.65;;;;;;;30.65;26.86;101981.13;6109359;28;20236;-54
2021/06/09 12:56:07;;;;;;;4.57;4.28;;;;;;;30.68;26.48;101982.72;6105310;28;20240;-52
2021/06/09 12:59:35;;;;;;;5.30;4.13;;;;;;;29.74;27.29;101981.56;6098618;28;20315;-52
2021/06/09 13:03:16;;;;;;;6.00;3.63;;;;;;;30.30;26.35;101971.19;6107450;28;20242;-54
2021/06/09 13:06:36;;;;;;;3.72;3.47;;;;;;;30.70;25.81;101978.94;6114767;28;20240;-49
2021/06/09 13:09:58;;;;;;;4.35;3.75;;;;;;;29.90;27.11;101984.88;6104457;28;20240;-53
2021/06/09 13:13:20;;;;;;;3.63;3.42;;;;;;;29.21;28.00;101974.50;6104950;28;20235;-54
2021/06/09 13:16:42;;;;;;;3.85;3.53;;;;;;;29.64;27.59;101976.84;6100030;28;20331;-56
2021/06/09 13:20:06;;;;;;;3.55;3.25;;;;;;;30.90;26.51;101982.78;6105515;28;20772;-54
2021/06/09 13:23:27;;;;;;;4.00;3.70;;;;;;;30.88;26.20;101973.13;6107031;28;20235;-55
2021/06/09 13:26:50;;;;;;;3.50;3.20;;;;;;;29.74;27.51;101977.06;6110819;28;20232;-49
2021/06/09 13:30:12;;;;;;;5.57;3.90;;;;;;;28.99;28.55;101969.75;6105007;28;20235;-59
2021/06/09 13:33:35;;;;;;;4.20;3.80;;;;;;;26.92;31.03;101968.69;6091921;28;22027;-54
2021/06/09 13:36:59;;;;;;;4.30;3.90;;;;;;;29.04;28.38;101961.38;6097805;28;20239;-51
2021/06/09 13:40:22;;;;;;;5.40;3.70;;;;;;;30.38;25.83;101955.38;6100429;28;20236;-53
2021/06/09 13:43:44;;;;;;;3.40;3.20;;;;;;;31.34;25.32;101951.56;6107517;28;20598;-55
2021/06/09 13:47:06;;;;;;;3.78;3.47;;;;;;;30.19;26.54;101955.84;6109384;28;20236;-55
2021/06/09 13:50:28;;;;;;;4.93;3.80;;;;;;;30.59;25.81;101955.56;6101907;28;20283;-57
2021/06/09 13:53:54;;;;;;;3.25;3.05;;;;;;;31.97;25.05;101948.34;6105391;28;20236;-50
2021/06/09 13:57:18;;;;;;;3.55;3.35;;;;;;;32.30;24.75;101942.00;6106693;28;20231;-53
2021/06/09 14:00:38;;;;;;;4.00;3.67;;;;;;;28.74;29.08;101943.78;6120462;28;20274;-61
2021/06/09 14:03:59;;;;;;;3.88;3.13;;;;;;;30.55;26.92;101937.09;6107273;28;20351;-59
2021/06/09 14:07:21;;;;;;;3.70;3.40;;;;;;;29.78;26.98;101938.28;6098896;28;20495;-59
2021/06/09 14:10:45;;;;;;;3.88;3.50;;;;;;;30.92;26.00;101936.97;6105692;28;20236;-58
2021/06/09 14:14:21;;;;;;;3.40;3.10;;;;;;;28.73;28.62;101933.16;6092553;28;20240;-58
2021/06/09 14:17:43;;;;;;;6.10;3.15;;;;;;;30.36;27.19;101925.06;6097172;28;20327;-56
2021/06/09 14:21:04;;;;;;;3.42;3.13;;;;;;;31.62;24.27;101921.59;6098863;28;20326;-55
2021/06/09 14:24:27;;;;;;;4.28;3.17;;;;;;;31.97;24.91;101914.19;6106481;28;20307;-54
2021/06/09 14:27:55;;;;;;;3.88;3.05;;;;;;;31.20;26.33;101919.53;6107097;28;20235;-51
2021/06/09 14:31:19;;;;;;;3.97;3.70;;;;;;;31.51;25.33;101909.88;6092862;28;20588;-51
2021/06/09 14:34:40;;;;;;;3.30;2.95;;;;;;;30.29;26.13;101906.81;6103381;28;20330;-51
2021/06/09 14:38:00;;;;;;;5.40;3.70;;;;;;;30.65;25.89;101905.88;6095916;28;20924;-49
2021/06/09 14:41:30;;;;;;;4.20;3.88;;;;;;;30.83;26.05;101900.88;6112902;28;20669;-54
2021/06/09 14:44:51;;;;;;;4.55;2.97;;;;;;;30.08;25.99;101898.53;6113148;28;20537;-54
2021/06/09 14:48:30;;;;;;;3.40;3.17;;;;;;;30.08;26.89;101890.50;6097328;28;20244;-53
2021/06/09 14:51:51;;;;;;;3.92;3.63;;;;;;;31.47;25.28;101894.97;6116658;28;20244;-55
2021/06/09 14:55:15;;;;;;;4.53;3.78;;;;;;;31.49;25.79;101887.59;6097072;28;20494;-52
2021/06/09 14:58:40;;;;;;;4.18;3.80;;;;;;;31.58;25.67;101881.47;6115885;28;20235;-53
2021/06/09 15:02:00;;;;;;;3.38;3.08;;;;;;;30.23;27.26;101887.50;6113624;28;20236;-52
2021/06/09 15:05:22;;;;;;;3.55;3.25;;;;;;;30.32;27.41;101885.97;6113262;28;20244;-52
2021/06/09 15:08:43;;;;;;;3.55;2.90;;;;;;;30.12;27.74;101886.59;6393251;23;20221;-52
2021/06/09 15:12:04;;;;;;;4.32;3.35;;;;;;;29.90;28.02;101890.88;6143130;28;20227;-53
2021/06/09 15:15:26;;;;;;;3.80;3.40;;;;;;;30.83;26.68;101881.22;6147731;28;20243;-53
2021/06/09 15:18:47;;;;;;;3.67;3.20;;;;;;;31.29;26.92;101881.13;6144391;28;20237;-49
2021/06/09 15:22:08;;;;;;;3.10;2.88;;;;;;;30.68;27.23;101881.41;6142935;28;20222;-52
2021/06/09 15:25:29;;;;;;;4.40;4.03;;;;;;;30.57;27.81;101876.00;6148573;28;20238;-50
2021/06/09 15:28:51;;;;;;;8.57;3.65;;;;;;;29.92;29.42;101877.34;6143931;28;20234;-51
2021/06/09 15:32:15;;;;;;;7.20;6.60;;;;;;;30.00;30.27;101878.47;6133119;28;20239;-53
2021/06/09 15:35:35;;;;;;;5.68;5.18;;;;;;;30.45;28.97;101882.34;6147127;28;20518;-50
2021/06/09 15:38:56;;;;;;;4.00;3.70;;;;;;;30.33;29.81;101882.31;6135794;28;20226;-48
2021/06/09 15:42:16;;;;;;;4.38;3.83;;;;;;;30.85;28.58;101872.03;6132974;28;20787;-52